Time;durP1;ratioP1;P1;durP2;ratioP2;P2;SDS_P1;SDS_P2;PMS_P1;PMS_P2;Temp;Humidity;BMP_temperature;BMP_pressure;BME280_temperature;BME280_humidity;BME280_pressure;Samples;Min_cycle;Max_cycle;Signal;HPM_P1;HPM_P2
2021/09/10 00:01:10;;;;;;;14.80;13.32;;;;;;;18.53;100.00;100365.25;5070714;28;20749;-76
2021/09/10 00:03:35;;;;;;;15.07;13.68;;;;;;;18.33;100.00;100360.50;5054181;28;20195;-75
2021/09/10 00:06:06;;;;;;;16.23;14.73;;;;;;;18.26;100.00;100351.13;5070501;28;20226;-76
2021/09/10 00:08:38;;;;;;;16.83;15.13;;;;;;;18.40;100.00;100344.28;5038919;28;20179;-75
2021/09/10 00:11:04;;;;;;;15.50;13.95;;;;;;;18.50;100.00;100350.22;5054629;28;20700;-75
2021/09/10 00:13:32;;;;;;;15.18;13.57;;;;;;;18.47;100.00;100363.03;5072135;28;20181;-75
2021/09/10 00:16:00;;;;;;;14.52;13.13;;;;;;;18.35;100.00;100374.75;5054082;28;20219;-75
2021/09/10 00:18:26;;;;;;;14.73;13.23;;;;;;;18.37;100.00;100375.22;5054080;28;20215;-76
2021/09/10 00:20:51;;;;;;;12.48;11.27;;;;;;;18.50;100.00;100374.97;5053383;28;20730;-77
2021/09/10 00:23:17;;;;;;;13.90;12.50;;;;;;;18.59;100.00;100373.00;5070579;28;20252;-75
2021/09/10 00:25:45;;;;;;;14.88;13.48;;;;;;;18.81;100.00;100385.66;5053379;28;20305;-74
2021/09/10 00:28:15;;;;;;;14.27;12.85;;;;;;;18.83;100.00;100378.69;5037067;28;20231;-75
2021/09/10 00:30:43;;;;;;;13.95;12.65;;;;;;;19.01;100.00;100377.47;5038019;28;20215;-75
2021/09/10 00:33:09;;;;;;;13.88;12.57;;;;;;;19.03;100.00;100378.75;5053780;28;20559;-75
2021/09/10 00:35:34;;;;;;;13.70;12.45;;;;;;;19.14;100.00;100385.50;5053175;28;20264;-76
2021/09/10 00:38:05;;;;;;;13.80;12.45;;;;;;;19.10;100.00;100376.28;5036751;28;20221;-76
2021/09/10 00:40:30;;;;;;;14.05;12.68;;;;;;;19.05;100.00;100373.72;5020453;28;20219;-75
2021/09/10 00:42:56;;;;;;;14.35;12.85;;;;;;;18.90;100.00;100377.03;5069834;28;20202;-75
2021/09/10 00:45:24;;;;;;;13.93;12.57;;;;;;;18.87;100.00;100379.63;5069814;28;20179;-75
2021/09/10 00:47:49;;;;;;;13.50;12.30;;;;;;;18.80;100.00;100379.34;5071293;28;20209;-74
2021/09/10 00:50:20;;;;;;;14.00;12.70;;;;;;;18.74;100.00;100383.44;5036270;28;20206;-75
2021/09/10 00:52:45;;;;;;;13.85;12.45;;;;;;;18.76;100.00;100383.91;5054099;28;20705;-75
2021/09/10 00:55:13;;;;;;;12.90;11.80;;;;;;;18.55;100.00;100394.06;5052919;28;20186;-75
2021/09/10 00:57:39;;;;;;;12.60;11.40;;;;;;;18.62;100.00;100404.53;5069764;28;20757;-74
2021/09/10 01:00:05;;;;;;;13.15;11.82;;;;;;;18.75;100.00;100411.75;5053191;28;20210;-73
2021/09/10 01:02:36;;;;;;;14.70;13.30;;;;;;;18.49;100.00;100404.78;5053481;28;20234;-75
2021/09/10 01:05:02;;;;;;;16.23;14.63;;;;;;;18.65;100.00;100406.63;5053893;28;20337;-74
2021/09/10 01:07:30;;;;;;;15.38;13.98;;;;;;;18.61;100.00;100413.94;5052945;28;20215;-74
2021/09/10 01:09:56;;;;;;;16.25;14.75;;;;;;;18.74;100.00;100410.16;5036557;28;20199;-74
2021/09/10 01:12:24;;;;;;;17.17;15.35;;;;;;;18.86;100.00;100413.00;5036078;28;20215;-74
2021/09/10 01:14:52;;;;;;;16.92;14.88;;;;;;;18.83;100.00;100410.91;5069711;28;20171;-75
2021/09/10 01:17:18;;;;;;;17.77;14.85;;;;;;;18.99;100.00;100415.53;5052891;28;20257;-75
2021/09/10 01:19:43;;;;;;;17.10;15.32;;;;;;;18.94;100.00;100415.72;5052943;28;20183;-74
2021/09/10 01:22:09;;;;;;;16.90;15.30;;;;;;;19.02;100.00;100412.13;5052731;28;20237;-75
2021/09/10 01:24:40;;;;;;;16.88;15.20;;;;;;;19.07;100.00;100414.69;5036498;28;20182;-75
2021/09/10 01:27:09;;;;;;;16.52;14.88;;;;;;;19.18;100.00;100419.47;5053015;28;20229;-75
2021/09/10 01:29:34;;;;;;;17.60;15.20;;;;;;;19.14;100.00;100428.72;5053152;28;20186;-74
2021/09/10 01:32:00;;;;;;;16.30;14.73;;;;;;;19.14;100.00;100417.72;5052340;28;20230;-75
2021/09/10 01:34:30;;;;;;;16.00;14.48;;;;;;;19.18;100.00;100422.22;5053311;28;20229;-74
2021/09/10 01:36:58;;;;;;;16.83;15.13;;;;;;;19.19;100.00;100432.09;5052702;28;20222;-74
2021/09/10 01:39:24;;;;;;;15.02;13.52;;;;;;;19.05;100.00;100437.06;5053065;28;20187;-74
2021/09/10 01:41:52;;;;;;;15.45;14.05;;;;;;;19.01;100.00;100444.38;5068978;28;20233;-74
2021/09/10 01:44:20;;;;;;;14.48;13.18;;;;;;;19.08;100.00;100441.91;5053665;28;20534;-75
2021/09/10 01:46:48;;;;;;;15.23;13.93;;;;;;;19.13;100.00;100438.94;5063981;28;20207;-74
2021/09/10 01:49:15;;;;;;;14.75;13.30;;;;;;;19.18;100.00;100436.00;5052386;28;20225;-75
2021/09/10 01:51:43;;;;;;;15.40;13.90;;;;;;;19.16;100.00;100438.28;5052641;28;20218;-74
2021/09/10 01:54:09;;;;;;;15.13;13.63;;;;;;;19.21;100.00;100457.38;5055073;28;20182;-75
2021/09/10 01:56:34;;;;;;;14.57;13.27;;;;;;;19.29;100.00;100453.75;5073020;28;20736;-73
2021/09/10 01:59:00;;;;;;;14.00;12.60;;;;;;;19.22;100.00;100453.47;5073190;28;20183;-74
2021/09/10 02:01:31;;;;;;;13.88;12.50;;;;;;;19.20;100.00;100450.25;5039563;28;20230;-74
2021/09/10 02:03:59;;;;;;;13.82;12.50;;;;;;;19.28;100.00;100452.13;5073577;28;20233;-74
2021/09/10 02:06:27;;;;;;;13.57;12.25;;;;;;;19.35;100.00;100453.22;5056130;28;20242;-75
2021/09/10 02:08:57;;;;;;;13.05;11.75;;;;;;;19.35;100.00;100452.41;5072757;28;20228;-75
2021/09/10 02:11:23;;;;;;;12.57;11.45;;;;;;;19.40;100.00;100450.28;5056369;28;20300;-74
2021/09/10 02:13:52;;;;;;;12.45;11.30;;;;;;;19.39;100.00;100442.34;5073117;28;20176;-74
2021/09/10 02:16:26;;;;;;;11.98;10.82;;;;;;;19.50;100.00;100451.81;5039230;28;20219;-74
2021/09/10 02:18:52;;;;;;;11.68;10.60;;;;;;;19.48;100.00;100445.84;5037699;28;20233;-76
2021/09/10 02:21:17;;;;;;;11.73;10.73;;;;;;;19.55;100.00;100446.91;5052593;28;20235;-76
2021/09/10 02:23:43;;;;;;;12.18;10.93;;;;;;;19.59;100.00;100453.38;5054453;28;20565;-74
2021/09/10 02:26:08;;;;;;;11.43;10.32;;;;;;;19.51;100.00;100450.69;5072117;28;20215;-74
2021/09/10 02:28:36;;;;;;;12.05;10.52;;;;;;;19.47;100.00;100449.75;5072474;28;20174;-76
2021/09/10 02:31:04;;;;;;;12.35;11.25;;;;;;;19.67;100.00;100441.47;5039674;28;20214;-75
2021/09/10 02:33:32;;;;;;;12.88;11.68;;;;;;;19.76;100.00;100444.94;5056356;28;20653;-75
2021/09/10 02:36:02;;;;;;;12.15;10.98;;;;;;;19.62;100.00;100443.63;5039665;28;20242;-74
2021/09/10 02:38:30;;;;;;;13.00;11.98;;;;;;;19.79;100.00;100431.28;5072315;28;20226;-75
2021/09/10 02:41:00;;;;;;;12.48;11.27;;;;;;;19.65;100.00;100437.44;5039481;28;20215;-75
2021/09/10 02:43:26;;;;;;;13.25;11.80;;;;;;;19.64;100.00;100439.38;5055723;28;20679;-75
2021/09/10 02:45:53;;;;;;;11.63;10.43;;;;;;;19.77;100.00;100438.31;5038717;28;20214;-75
2021/09/10 02:48:23;;;;;;;12.07;10.88;;;;;;;19.85;100.00;100435.50;5039859;28;20175;-75
2021/09/10 02:50:54;;;;;;;12.10;10.77;;;;;;;19.79;100.00;100431.28;5055619;28;20215;-75
2021/09/10 02:53:20;;;;;;;11.30;10.15;;;;;;;19.90;100.00;100427.00;5072732;28;20183;-75
2021/09/10 02:55:50;;;;;;;12.35;11.25;;;;;;;19.96;100.00;100422.88;5055825;28;20218;-75
2021/09/10 02:58:16;;;;;;;12.52;11.38;;;;;;;19.80;100.00;100424.66;5055217;28;20203;-75
2021/09/10 03:00:42;;;;;;;12.77;11.45;;;;;;;19.91;100.00;100423.13;5055147;28;20306;-74
2021/09/10 03:03:11;;;;;;;12.27;11.07;;;;;;;19.73;100.00;100426.34;5055728;28;20179;-74
2021/09/10 03:05:38;;;;;;;11.10;10.13;;;;;;;19.61;100.00;100425.47;5022354;28;20218;-75
2021/09/10 03:08:10;;;;;;;12.18;10.52;;;;;;;19.76;100.00;100426.47;5055297;28;20175;-74
2021/09/10 03:10:38;;;;;;;11.25;10.15;;;;;;;19.52;100.00;100424.72;5055302;28;20356;-74
2021/09/10 03:13:04;;;;;;;10.40;9.40;;;;;;;19.56;100.00;100414.63;5039284;28;20176;-75
2021/09/10 03:15:32;;;;;;;11.48;10.32;;;;;;;19.60;100.00;100421.13;5038986;28;20214;-75
2021/09/10 03:18:02;;;;;;;11.40;10.18;;;;;;;19.63;100.00;100414.91;5071381;28;20202;-75
2021/09/10 03:20:28;;;;;;;10.85;9.73;;;;;;;19.65;100.00;100418.97;5037842;28;20249;-76
2021/09/10 03:22:56;;;;;;;12.48;11.00;;;;;;;19.71;100.00;100420.38;5068025;28;20176;-75
2021/09/10 03:25:26;;;;;;;13.95;11.40;;;;;;;19.82;100.00;100425.16;5037963;28;20210;-74
2021/09/10 03:27:54;;;;;;;14.18;12.63;;;;;;;20.01;100.00;100421.88;5029525;28;20670;-75
2021/09/10 03:30:22;;;;;;;13.13;11.82;;;;;;;19.90;100.00;100429.78;5022160;28;20294;-76
2021/09/10 03:32:48;;;;;;;14.35;11.93;;;;;;;19.96;100.00;100420.13;5071876;28;20175;-75
2021/09/10 03:35:13;;;;;;;13.25;11.95;;;;;;;20.02;100.00;100424.31;5054230;28;20187;-75
2021/09/10 03:37:39;;;;;;;13.05;11.43;;;;;;;20.05;100.00;100423.63;5038219;28;20211;-76
2021/09/10 03:40:05;;;;;;;14.60;12.85;;;;;;;20.22;100.00;100423.47;5070601;28;20199;-76
2021/09/10 03:42:35;;;;;;;13.95;12.30;;;;;;;20.32;100.00;100417.50;5072999;28;20175;-76
2021/09/10 03:45:03;;;;;;;14.20;12.73;;;;;;;20.24;100.00;100426.69;5072355;28;20179;-75
2021/09/10 03:47:29;;;;;;;14.25;12.63;;;;;;;20.13;100.00;100422.75;5023479;28;20211;-76
2021/09/10 03:49:54;;;;;;;13.38;12.07;;;;;;;20.35;100.00;100419.59;5070832;28;20234;-75
2021/09/10 03:52:20;;;;;;;13.65;12.25;;;;;;;20.21;100.00;100417.13;5033151;28;20218;-75
2021/09/10 03:54:45;;;;;;;13.60;11.93;;;;;;;20.34;100.00;100412.44;5072087;28;20598;-76
2021/09/10 03:57:13;;;;;;;13.90;12.50;;;;;;;20.37;100.00;100414.53;5020336;28;20227;-76
2021/09/10 03:59:39;;;;;;;13.55;12.25;;;;;;;20.25;100.00;100417.25;5065230;28;20205;-75
2021/09/10 04:02:09;;;;;;;14.55;12.57;;;;;;;20.41;100.00;100412.69;5037829;28;20234;-75
2021/09/10 04:04:42;;;;;;;13.93;12.57;;;;;;;20.26;100.00;100413.34;5053483;28;20194;-75
2021/09/10 04:07:10;;;;;;;17.73;14.13;;;;;;;20.35;100.00;100427.88;5069912;28;20767;-75
2021/09/10 04:09:38;;;;;;;13.95;12.43;;;;;;;20.39;100.00;100426.81;5049373;28;20193;-76
2021/09/10 04:12:08;;;;;;;14.02;12.70;;;;;;;20.22;100.00;100423.47;5063290;28;20305;-75
2021/09/10 04:14:36;;;;;;;15.40;13.32;;;;;;;20.31;100.00;100415.88;5054050;28;20194;-73
2021/09/10 04:17:04;;;;;;;15.35;13.18;;;;;;;20.26;100.00;100425.19;5053023;28;20719;-75
2021/09/10 04:19:32;;;;;;;16.70;14.95;;;;;;;20.23;100.00;100425.06;5070382;28;20171;-75
2021/09/10 04:22:02;;;;;;;17.17;15.43;;;;;;;20.32;100.00;100417.50;5054078;28;20680;-74
2021/09/10 04:24:28;;;;;;;17.45;15.52;;;;;;;20.31;100.00;100418.63;5054210;28;20179;-73
2021/09/10 04:26:53;;;;;;;17.40;15.52;;;;;;;20.26;100.00;100421.63;5053576;28;20226;-75
2021/09/10 04:29:21;;;;;;;20.15;15.98;;;;;;;20.43;100.00;100436.03;5071495;28;20189;-75
2021/09/10 04:31:49;;;;;;;18.58;16.50;;;;;;;20.48;100.00;100439.38;5035778;28;20214;-74
2021/09/10 04:34:14;;;;;;;18.20;16.27;;;;;;;20.48;100.00;100442.13;5029971;28;20187;-77
2021/09/10 04:36:42;;;;;;;23.38;20.90;;;;;;;20.27;100.00;100442.53;5019788;28;20334;-74
2021/09/10 04:39:08;;;;;;;23.33;20.92;;;;;;;20.36;100.00;100449.56;5047513;28;20719;-75
2021/09/10 04:41:35;;;;;;;19.80;17.75;;;;;;;20.49;100.00;100452.03;5053226;28;20226;-75
2021/09/10 04:44:01;;;;;;;18.23;16.35;;;;;;;20.36;100.00;100457.84;5036269;28;20547;-75
2021/09/10 04:46:27;;;;;;;20.67;15.77;;;;;;;20.40;100.00;100458.78;5069840;28;20297;-75
2021/09/10 04:48:52;;;;;;;15.75;14.13;;;;;;;20.43;100.00;100473.88;5070551;28;20186;-74
2021/09/10 04:51:18;;;;;;;16.20;14.50;;;;;;;20.42;100.00;100473.06;5052749;28;20225;-76
2021/09/10 04:53:46;;;;;;;15.60;14.02;;;;;;;20.44;100.00;100476.28;5060931;28;20195;-75
2021/09/10 04:56:14;;;;;;;15.77;14.18;;;;;;;20.36;100.00;100476.38;5052820;28;20258;-75
2021/09/10 04:58:41;;;;;;;16.77;14.98;;;;;;;20.31;100.00;100471.88;5037245;28;20206;-75
2021/09/10 05:01:07;;;;;;;16.15;14.43;;;;;;;20.37;100.00;100478.78;5069722;28;20322;-74
2021/09/10 05:03:33;;;;;;;17.75;15.88;;;;;;;20.45;100.00;100478.69;5053526;28;20273;-74
2021/09/10 05:06:00;;;;;;;18.35;16.02;;;;;;;20.55;100.00;100477.47;5016513;28;20211;-75
2021/09/10 05:08:28;;;;;;;19.05;16.98;;;;;;;20.47;100.00;100476.41;5049590;28;20272;-76
2021/09/10 05:10:59;;;;;;;24.35;18.75;;;;;;;20.46;100.00;100472.03;5061337;28;20226;-74
2021/09/10 05:13:26;;;;;;;24.80;21.52;;;;;;;20.18;100.00;100470.22;5066280;28;20183;-74
2021/09/10 05:15:55;;;;;;;25.63;21.83;;;;;;;20.28;100.00;100456.00;5045655;28;20234;-74
2021/09/10 05:18:25;;;;;;;28.67;22.33;;;;;;;20.10;100.00;100471.09;5069703;28;20643;-75
2021/09/10 05:20:53;;;;;;;27.60;22.73;;;;;;;20.16;100.00;100469.78;5034148;28;20583;-73
2021/09/10 05:23:21;;;;;;;26.00;23.20;;;;;;;20.31;100.00;100482.09;5077324;28;20282;-74
2021/09/10 05:25:49;;;;;;;31.40;25.13;;;;;;;20.27;100.00;100481.97;5059790;28;20382;-72
2021/09/10 05:28:18;;;;;;;33.88;25.45;;;;;;;20.30;100.00;100480.50;5046241;28;20736;-73
2021/09/10 05:30:44;;;;;;;35.90;26.27;;;;;;;20.37;100.00;100475.25;5051118;28;20248;-72
2021/09/10 05:33:11;;;;;;;35.38;28.20;;;;;;;20.28;100.00;100482.78;5072199;28;20262;-73
2021/09/10 05:35:37;;;;;;;37.53;28.27;;;;;;;20.25;100.00;100488.97;5035588;28;20234;-75
2021/09/10 05:38:03;;;;;;;36.97;29.33;;;;;;;20.52;100.00;100494.69;5052986;28;20207;-73
2021/09/10 05:40:30;;;;;;;39.03;27.02;;;;;;;20.38;100.00;100493.41;5069426;28;20296;-74
2021/09/10 05:42:59;;;;;;;40.05;28.15;;;;;;;20.36;100.00;100490.16;5037737;28;20578;-74
2021/09/10 05:45:27;;;;;;;39.60;28.63;;;;;;;20.32;100.00;100494.75;5061841;28;20175;-74
2021/09/10 05:47:52;;;;;;;59.67;34.03;;;;;;;20.48;100.00;100494.56;5061917;28;20561;-75
2021/09/10 05:50:20;;;;;;;68.30;37.30;;;;;;;20.46;100.00;100493.31;5051334;28;20215;-74
2021/09/10 05:52:51;;;;;;;50.75;33.15;;;;;;;20.20;100.00;100497.47;5074545;28;20194;-74
2021/09/10 05:55:16;;;;;;;52.58;31.80;;;;;;;20.20;100.00;100500.22;5082316;28;20206;-72
2021/09/10 05:57:42;;;;;;;60.53;32.95;;;;;;;20.30;100.00;100499.81;5065555;28;20667;-74
2021/09/10 06:00:07;;;;;;;55.35;31.63;;;;;;;20.27;100.00;100492.19;5081277;28;20203;-75
2021/09/10 06:02:40;;;;;;;63.05;33.92;;;;;;;20.46;100.00;100502.41;5080893;28;20248;-74
2021/09/10 06:05:09;;;;;;;52.30;31.67;;;;;;;20.34;100.00;100498.78;5063393;28;20278;-74
2021/09/10 06:07:35;;;;;;;46.05;31.45;;;;;;;20.31;100.00;100498.66;5058262;28;20203;-75
2021/09/10 06:10:00;;;;;;;66.97;34.03;;;;;;;20.32;100.00;100494.75;5052843;28;20206;-74
2021/09/10 06:12:26;;;;;;;59.20;33.75;;;;;;;20.19;100.00;100498.63;5069223;28;20225;-73
2021/09/10 06:14:54;;;;;;;57.13;34.85;;;;;;;20.23;100.00;100502.31;5036251;28;20184;-75
2021/09/10 06:17:22;;;;;;;53.70;32.88;;;;;;;20.34;100.00;100496.03;5035703;28;20253;-75
2021/09/10 06:19:47;;;;;;;57.45;34.88;;;;;;;20.37;100.00;100491.78;5052279;28;20663;-73
2021/09/10 06:22:15;;;;;;;62.08;36.45;;;;;;;20.37;100.00;100502.84;5052303;28;20215;-74
2021/09/10 06:24:43;;;;;;;63.60;34.80;;;;;;;20.23;100.00;100497.59;5036517;28;20185;-74
2021/09/10 06:27:14;;;;;;;59.28;38.03;;;;;;;20.35;100.00;100502.38;5069307;28;20705;-74
2021/09/10 06:29:41;;;;;;;74.50;40.03;;;;;;;20.29;100.00;100503.72;5054103;28;20250;-74
2021/09/10 06:32:07;;;;;;;60.28;38.38;;;;;;;20.27;100.00;100508.75;5053483;28;20215;-74
2021/09/10 06:34:35;;;;;;;66.05;37.33;;;;;;;20.43;100.00;100511.34;5037324;28;20601;-74
2021/09/10 06:37:00;;;;;;;70.03;38.22;;;;;;;20.36;100.00;100507.53;5053386;28;20223;-74
2021/09/10 06:39:26;;;;;;;75.72;40.13;;;;;;;20.23;100.00;100510.59;5052686;28;20205;-74
2021/09/10 06:41:51;;;;;;;75.40;40.35;;;;;;;20.21;100.00;100513.69;5071530;28;20226;-75
2021/09/10 06:44:17;;;;;;;78.40;41.28;;;;;;;20.24;100.00;100512.22;5040621;28;20194;-74
2021/09/10 06:46:43;;;;;;;75.30;39.70;;;;;;;20.16;100.00;100522.19;5071930;28;20634;-74
2021/09/10 06:49:13;;;;;;;73.47;39.70;;;;;;;20.19;100.00;100520.69;5055667;28;20183;-73
2021/09/10 06:51:39;;;;;;;75.68;39.97;;;;;;;20.18;100.00;100510.78;5039228;28;20242;-74
2021/09/10 06:54:04;;;;;;;73.30;40.70;;;;;;;20.21;100.00;100501.84;5073947;28;20256;-74
2021/09/10 06:56:32;;;;;;;75.75;39.97;;;;;;;20.10;100.00;100506.97;5038374;28;20222;-76
2021/09/10 06:58:58;;;;;;;83.60;41.38;;;;;;;20.20;100.00;100508.50;5055308;28;20218;-73
2021/09/10 07:01:24;;;;;;;88.65;42.13;;;;;;;20.13;100.00;100511.03;5055320;28;20616;-75
2021/09/10 07:03:49;;;;;;;86.22;41.50;;;;;;;20.09;100.00;100512.81;5072448;28;20258;-73
2021/09/10 07:06:17;;;;;;;120.20;44.97;;;;;;;20.15;100.00;100512.28;5021941;28;20214;-73
2021/09/10 07:08:45;;;;;;;114.00;45.28;;;;;;;20.29;100.00;100509.22;5055667;28;20649;-74
2021/09/10 07:11:12;;;;;;;104.75;44.00;;;;;;;20.14;100.00;100520.88;5038673;28;20560;-74
2021/09/10 07:13:41;;;;;;;134.73;47.33;;;;;;;20.28;100.00;100499.34;5071733;28;20175;-75
2021/09/10 07:16:09;;;;;;;164.95;51.28;;;;;;;20.18;100.00;100519.06;5055148;28;20238;-72
2021/09/10 07:18:35;;;;;;;129.15;48.22;;;;;;;20.14;100.00;100526.41;5054891;28;20253;-72
2021/09/10 07:21:05;;;;;;;120.75;46.38;;;;;;;20.15;100.00;100533.56;5072981;28;20584;-74
2021/09/10 07:23:32;;;;;;;130.13;47.88;;;;;;;20.18;100.00;100532.84;5055634;28;20248;-72
2021/09/10 07:26:03;;;;;;;108.13;46.72;;;;;;;20.06;100.00;100552.13;5039143;28;20298;-73
2021/09/10 07:28:35;;;;;;;108.75;46.78;;;;;;;20.10;100.00;100564.09;5040121;28;20187;-73
2021/09/10 07:31:01;;;;;;;110.43;45.95;;;;;;;20.20;100.00;100574.72;5071144;28;20302;-74
2021/09/10 07:33:27;;;;;;;127.05;48.17;;;;;;;19.97;100.00;100576.19;5030298;28;20568;-73
2021/09/10 07:35:55;;;;;;;115.60;47.22;;;;;;;20.00;100.00;100580.22;5034638;28;20298;-73
2021/09/10 07:38:23;;;;;;;137.98;49.40;;;;;;;19.98;100.00;100588.88;5064849;28;20293;-73
2021/09/10 07:40:49;;;;;;;110.38;47.17;;;;;;;19.96;100.00;100593.88;5071393;28;20696;-75
2021/09/10 07:43:15;;;;;;;111.55;48.55;;;;;;;19.95;100.00;100599.75;5071620;28;20178;-73
2021/09/10 07:45:40;;;;;;;114.28;47.13;;;;;;;20.01;100.00;100596.44;5054399;28;20219;-73
2021/09/10 07:48:06;;;;;;;108.47;46.35;;;;;;;20.05;100.00;100599.34;5042991;28;20204;-74
2021/09/10 07:50:31;;;;;;;86.32;43.95;;;;;;;20.15;100.00;100605.28;5091103;28;20214;-73
2021/09/10 07:52:57;;;;;;;103.75;44.65;;;;;;;20.31;100.00;100606.28;5066197;28;20171;-74
2021/09/10 07:55:22;;;;;;;94.75;45.08;;;;;;;20.38;100.00;100614.81;5037772;28;20190;-74
2021/09/10 07:57:50;;;;;;;98.45;45.58;;;;;;;20.37;100.00;100614.03;5021235;28;20201;-75
2021/09/10 08:00:20;;;;;;;94.53;44.42;;;;;;;20.38;100.00;100617.59;5037906;28;20195;-74
2021/09/10 08:02:46;;;;;;;115.00;46.22;;;;;;;20.33;100.00;100615.03;5055613;28;20183;-75
2021/09/10 08:05:17;;;;;;;90.05;43.90;;;;;;;20.38;100.00;100621.13;5054695;28;20236;-75
2021/09/10 08:07:46;;;;;;;102.93;42.75;;;;;;;20.25;100.00;100626.94;5054360;28;20163;-75
2021/09/10 08:10:17;;;;;;;86.07;43.58;;;;;;;20.40;100.00;100629.09;5021198;28;20638;-75
2021/09/10 08:12:46;;;;;;;77.45;40.50;;;;;;;20.45;100.00;100624.97;5039304;28;20559;-75
2021/09/10 08:15:16;;;;;;;80.15;41.63;;;;;;;20.54;100.00;100625.72;5022398;28;20199;-75
2021/09/10 08:17:44;;;;;;;110.22;42.58;;;;;;;20.43;100.00;100624.50;5038019;28;20199;-75
2021/09/10 08:20:10;;;;;;;87.00;41.90;;;;;;;20.57;100.00;100627.00;5053389;28;20199;-75
2021/09/10 08:22:38;;;;;;;104.07;45.72;;;;;;;20.58;100.00;100618.34;5070794;28;20548;-75
2021/09/10 08:25:08;;;;;;;188.63;54.45;;;;;;;20.57;100.00;100624.25;5071206;28;20716;-74
2021/09/10 08:27:37;;;;;;;121.10;46.85;;;;;;;20.71;100.00;100631.09;5070525;28;20680;-75
2021/09/10 08:30:06;;;;;;;125.05;49.58;;;;;;;20.90;100.00;100618.41;5036896;28;20906;-75
2021/09/10 08:32:32;;;;;;;119.35;47.63;;;;;;;20.75;100.00;100636.75;5054507;28;20190;-74
2021/09/10 08:34:57;;;;;;;86.88;44.53;;;;;;;20.80;100.00;100634.59;5070643;28;20232;-75
2021/09/10 08:37:23;;;;;;;89.00;42.22;;;;;;;20.86;100.00;100641.53;5036698;28;20223;-75
2021/09/10 08:39:49;;;;;;;82.07;43.70;;;;;;;21.04;100.00;100629.16;5031087;28;20221;-75
2021/09/10 08:42:17;;;;;;;90.38;45.00;;;;;;;21.04;100.00;100629.97;5051257;28;20701;-75
2021/09/10 08:44:48;;;;;;;84.75;44.38;;;;;;;20.98;100.00;100625.00;5066961;28;20211;-76
2021/09/10 08:47:14;;;;;;;88.43;44.95;;;;;;;21.04;100.00;100631.91;5070172;28;20643;-74
2021/09/10 08:49:44;;;;;;;97.63;45.80;;;;;;;20.97;100.00;100629.72;5053136;28;20183;-75
2021/09/10 08:52:10;;;;;;;83.95;44.67;;;;;;;21.00;100.00;100622.69;5037246;28;20222;-74
2021/09/10 08:54:38;;;;;;;107.55;47.35;;;;;;;21.08;100.00;100624.53;5053899;28;20209;-75
2021/09/10 08:57:06;;;;;;;90.07;44.30;;;;;;;21.11;100.00;100621.09;5036740;28;20230;-74
2021/09/10 08:59:32;;;;;;;79.15;43.95;;;;;;;21.22;100.00;100627.81;5069806;28;20211;-73
2021/09/10 09:01:59;;;;;;;88.63;43.80;;;;;;;21.25;100.00;100619.66;5052901;28;20230;-74
2021/09/10 09:04:34;;;;;;;85.57;44.80;;;;;;;21.29;100.00;100610.31;5036428;28;20221;-74
2021/09/10 09:07:06;;;;;;;76.22;42.05;;;;;;;21.20;100.00;100613.53;5069016;28;20219;-74
2021/09/10 09:09:45;;;;;;;81.03;44.00;;;;;;;21.33;100.00;100614.00;5041196;28;20278;-74
2021/09/10 09:12:24;;;;;;;83.45;46.40;;;;;;;21.37;100.00;100614.94;5033831;28;20237;-74
2021/09/10 09:15:03;;;;;;;76.30;45.85;;;;;;;21.42;100.00;100619.47;5062745;28;20206;-74
2021/09/10 09:17:33;;;;;;;75.00;44.50;;;;;;;21.44;100.00;100630.97;5053931;28;20612;-73
2021/09/10 09:20:20;;;;;;;68.95;43.10;;;;;;;21.40;100.00;100632.78;5037194;28;20203;-74
2021/09/10 09:22:58;;;;;;;71.60;43.80;;;;;;;21.51;100.00;100628.47;5069682;28;20710;-74
2021/09/10 09:25:25;;;;;;;73.75;44.03;;;;;;;21.55;100.00;100635.72;5070609;28;20194;-74
2021/09/10 09:27:54;;;;;;;67.93;42.90;;;;;;;21.58;100.00;100629.50;5070723;28;20183;-74
2021/09/10 09:30:38;;;;;;;63.45;42.85;;;;;;;21.56;100.00;100634.56;5036808;28;20217;-73
2021/09/10 09:33:07;;;;;;;70.85;43.40;;;;;;;21.62;100.00;100635.16;5036832;28;20281;-74
2021/09/10 09:35:32;;;;;;;58.92;40.42;;;;;;;21.78;100.00;100623.06;5069217;28;20215;-75
2021/09/10 09:37:58;;;;;;;55.20;38.72;;;;;;;21.95;100.00;100625.56;5070970;28;20578;-75
2021/09/10 09:40:33;;;;;;;51.40;37.42;;;;;;;21.73;100.00;100628.81;5036345;28;20218;-75
2021/09/10 09:42:59;;;;;;;49.75;37.85;;;;;;;21.79;100.00;100630.19;5069608;28;20678;-74
2021/09/10 09:45:24;;;;;;;37.88;30.33;;;;;;;22.00;100.00;100626.94;5069268;28;20187;-75
2021/09/10 09:47:52;;;;;;;33.83;29.23;;;;;;;22.20;100.00;100626.03;5036190;28;20182;-75
2021/09/10 09:50:19;;;;;;;35.58;29.05;;;;;;;22.69;100.00;100621.94;5052477;28;20226;-75
2021/09/10 09:52:48;;;;;;;38.42;30.77;;;;;;;22.55;100.00;100638.16;5053194;28;20605;-74
2021/09/10 09:55:16;;;;;;;32.63;29.05;;;;;;;22.60;100.00;100630.41;5052604;28;20224;-75
2021/09/10 09:57:44;;;;;;;29.50;26.35;;;;;;;23.01;100.00;100625.25;5069713;28;20250;-75
2021/09/10 10:00:10;;;;;;;27.73;24.90;;;;;;;23.13;100.00;100629.94;5051813;28;20230;-75
2021/09/10 10:02:36;;;;;;;27.10;24.27;;;;;;;23.64;100.00;100644.41;5052896;28;20248;-75
2021/09/10 10:05:05;;;;;;;26.65;23.95;;;;;;;22.83;100.00;100640.56;5069518;28;20182;-74
2021/09/10 10:07:50;;;;;;;25.42;22.92;;;;;;;23.26;100.00;100632.28;5052417;28;20305;-75
2021/09/10 10:10:21;;;;;;;25.25;22.55;;;;;;;23.82;100.00;100640.88;5052857;28;20585;-74
2021/09/10 10:12:47;;;;;;;24.08;21.85;;;;;;;24.05;100.00;100645.44;5019822;28;20183;-74
2021/09/10 10:15:25;;;;;;;23.00;20.65;;;;;;;24.32;100.00;100636.16;5048886;28;20183;-75
2021/09/10 10:17:52;;;;;;;20.67;18.50;;;;;;;23.93;100.00;100636.41;5039100;28;20199;-73
2021/09/10 10:20:45;;;;;;;15.95;14.35;;;;;;;23.42;100.00;100642.22;5051735;28;20237;-74
2021/09/10 10:23:42;;;;;;;16.23;14.57;;;;;;;23.06;100.00;100638.03;5066687;28;20179;-74
2021/09/10 10:26:34;;;;;;;12.73;11.52;;;;;;;23.65;100.00;100641.25;5069184;28;20590;-77
2021/09/10 10:29:32;;;;;;;11.77;10.60;;;;;;;23.99;100.00;100634.94;5019536;28;20179;-75
2021/09/10 10:32:05;;;;;;;10.88;9.88;;;;;;;24.40;100.00;100641.50;5053198;28;20215;-75
2021/09/10 10:34:34;;;;;;;10.90;9.82;;;;;;;23.97;100.00;100648.38;5038166;28;20240;-76
2021/09/10 10:36:59;;;;;;;11.32;10.23;;;;;;;23.70;100.00;100643.78;5053327;28;20227;-75
2021/09/10 10:39:32;;;;;;;9.93;9.02;;;;;;;23.79;100.00;100644.41;5053774;28;20201;-76
2021/09/10 10:41:58;;;;;;;5.43;4.90;;;;;;;23.60;100.00;100644.31;5055170;28;20233;-75
2021/09/10 10:44:29;;;;;;;3.45;3.15;;;;;;;23.64;100.00;100644.41;5054937;28;20721;-74
2021/09/10 10:47:04;;;;;;;3.22;2.92;;;;;;;23.79;100.00;100638.84;5072843;28;20227;-74
2021/09/10 10:49:46;;;;;;;3.22;3.00;;;;;;;24.45;100.00;100632.91;5071898;28;20179;-76
2021/09/10 10:52:31;;;;;;;3.80;3.50;;;;;;;24.53;100.00;100631.06;5052504;28;20222;-74
2021/09/10 10:55:20;;;;;;;4.20;3.90;;;;;;;24.62;100.00;100626.91;5052293;28;20191;-73
2021/09/10 10:57:54;;;;;;;4.68;3.80;;;;;;;24.80;100.00;100639.19;5035866;28;20247;-75
2021/09/10 11:00:28;;;;;;;3.92;3.58;;;;;;;25.11;100.00;100630.69;5038122;28;20206;-75
2021/09/10 11:03:12;;;;;;;4.20;3.60;;;;;;;25.01;100.00;100629.31;5073150;28;20194;-74
2021/09/10 11:05:38;;;;;;;4.00;3.60;;;;;;;25.13;100.00;100628.31;5072959;28;20210;-75
2021/09/10 11:08:05;;;;;;;4.03;3.50;;;;;;;25.11;100.00;100625.13;5038921;28;20309;-74